Time;durP1;ratioP1;P1;durP2;ratioP2;P2;SDS_P1;SDS_P2;PMS_P1;PMS_P2;Temp;Humidity;BMP_temperature;BMP_pressure;BME280_temperature;BME280_humidity;BME280_pressure;Samples;Min_cycle;Max_cycle;Signal;HPM_P1;HPM_P2
2022/06/13 00:01:32;;;;;;;7.85;5.22;;;;;;;;;;4752416;30;20046;-62
2022/06/13 00:04:01;;;;;;;7.38;4.18;;;;;;;;;;4752695;30;20052;-63
2022/06/13 00:06:29;;;;;;;8.05;4.28;;;;;;;;;;4752378;30;20048;-63
2022/06/13 00:08:56;;;;;;;7.10;3.97;;;;;;;;;;4752489;30;20194;-62
2022/06/13 00:11:25;;;;;;;7.38;4.15;;;;;;;;;;4752397;30;20044;-63
2022/06/13 00:13:55;;;;;;;6.43;4.22;;;;;;;;;;4752031;30;20809;-62
2022/06/13 00:16:22;;;;;;;9.05;4.82;;;;;;;;;;4752331;30;20420;-62
2022/06/13 00:18:50;;;;;;;7.53;4.80;;;;;;;;;;4750992;30;20045;-62
2022/06/13 00:21:27;;;;;;;5.85;3.75;;;;;;;;;;4752120;30;20048;-62
2022/06/13 00:23:55;;;;;;;9.52;4.88;;;;;;;;;;4751806;30;20044;-62
2022/06/13 00:26:25;;;;;;;6.45;3.65;;;;;;;;;;4752103;30;20044;-63
2022/06/13 00:28:54;;;;;;;8.70;4.30;;;;;;;;;;4751928;30;20557;-64
2022/06/13 00:31:22;;;;;;;7.03;4.63;;;;;;;;;;4751992;30;20048;-62
2022/06/13 00:33:50;;;;;;;8.25;4.45;;;;;;;;;;4751924;30;20059;-63
2022/06/13 00:36:18;;;;;;;9.45;4.93;;;;;;;;;;4751902;30;20063;-64
2022/06/13 00:38:45;;;;;;;8.15;4.97;;;;;;;;;;4752001;30;20453;-65
2022/06/13 00:41:18;;;;;;;9.27;5.28;;;;;;;;;;4765452;30;20505;-64
2022/06/13 00:43:46;;;;;;;10.23;4.65;;;;;;;;;;4751738;30;20044;-60
2022/06/13 00:46:19;;;;;;;118.95;57.78;;;;;;;;;;4751775;30;20074;-61
2022/06/13 00:48:49;;;;;;;32.00;18.35;;;;;;;;;;4751469;30;20054;-63
2022/06/13 00:51:17;;;;;;;10.75;7.05;;;;;;;;;;4751794;30;20383;-64
2022/06/13 00:53:45;;;;;;;8.35;6.25;;;;;;;;;;4751617;30;20044;-60
2022/06/13 00:56:16;;;;;;;13.60;6.38;;;;;;;;;;4750687;30;20134;-64
2022/06/13 00:59:03;;;;;;;10.48;5.68;;;;;;;;;;4765210;30;20052;-64
2022/06/13 01:01:32;;;;;;;9.43;4.70;;;;;;;;;;4751720;30;20520;-60
2022/06/13 01:04:03;;;;;;;7.50;3.97;;;;;;;;;;4751622;30;20095;-63
2022/06/13 01:06:34;;;;;;;6.80;4.35;;;;;;;;;;4751644;30;20051;-60
2022/06/13 01:09:07;;;;;;;8.80;4.95;;;;;;;;;;4751416;30;20593;-63
2022/06/13 01:11:38;;;;;;;6.28;3.83;;;;;;;;;;4751442;30;20517;-63
2022/06/13 01:14:31;;;;;;;6.95;4.32;;;;;;;;;;4751042;30;20045;-62
2022/06/13 01:17:20;;;;;;;6.25;4.30;;;;;;;;;;4765058;30;20052;-64
2022/06/13 01:20:21;;;;;;;8.65;4.68;;;;;;;;;;4764941;30;20514;-64
2022/06/13 01:23:13;;;;;;;8.55;4.82;;;;;;;;;;4751453;30;20059;-59
2022/06/13 01:26:14;;;;;;;7.63;5.22;;;;;;;;;;4751466;30;20044;-58
2022/06/13 01:29:26;;;;;;;8.52;4.45;;;;;;;;;;4751147;30;20052;-63
2022/06/13 01:31:53;;;;;;;9.32;4.72;;;;;;;;;;4751352;30;20041;-64
2022/06/13 01:34:40;;;;;;;8.85;4.82;;;;;;;;;;4764727;30;20455;-63
2022/06/13 01:37:36;;;;;;;7.10;4.63;;;;;;;;;;4751355;30;20071;-62
2022/06/13 01:40:19;;;;;;;6.28;3.90;;;;;;;;;;4751424;30;20048;-63
2022/06/13 01:43:08;;;;;;;12.70;6.05;;;;;;;;;;4764700;30;20127;-60
2022/06/13 01:45:48;;;;;;;7.30;5.05;;;;;;;;;;4751290;30;20059;-63
2022/06/13 01:48:35;;;;;;;12.88;6.10;;;;;;;;;;4751201;30;20052;-62
2022/06/13 01:51:18;;;;;;;7.97;5.03;;;;;;;;;;4751220;30;20046;-64
2022/06/13 01:54:05;;;;;;;7.55;4.50;;;;;;;;;;4751066;30;20082;-64
2022/06/13 01:57:04;;;;;;;7.47;4.88;;;;;;;;;;4751192;30;20123;-64
2022/06/13 01:59:49;;;;;;;6.82;4.63;;;;;;;;;;4750962;30;20044;-64
2022/06/13 02:02:48;;;;;;;6.70;4.93;;;;;;;;;;4751141;30;20047;-64
2022/06/13 02:05:18;;;;;;;6.13;4.88;;;;;;;;;;4749351;30;20143;-64
2022/06/13 02:07:52;;;;;;;7.70;5.00;;;;;;;;;;4750834;30;20114;-59
2022/06/13 02:10:49;;;;;;;8.25;4.57;;;;;;;;;;4751144;30;20041;-64
2022/06/13 02:13:23;;;;;;;6.25;5.22;;;;;;;;;;4751024;30;20056;-64
2022/06/13 02:15:55;;;;;;;5.85;4.72;;;;;;;;;;4751031;30;20075;-65
2022/06/13 02:18:30;;;;;;;6.75;4.32;;;;;;;;;;4750690;30;20044;-64
2022/06/13 02:21:08;;;;;;;7.40;4.80;;;;;;;;;;4751260;30;20055;-64
2022/06/13 02:23:41;;;;;;;5.95;4.80;;;;;;;;;;4750718;30;20059;-64
2022/06/13 02:26:18;;;;;;;7.63;4.93;;;;;;;;;;4752295;30;20082;-64
2022/06/13 02:28:53;;;;;;;5.97;3.85;;;;;;;;;;4753941;30;20142;-64
2022/06/13 02:31:29;;;;;;;7.45;4.50;;;;;;;;;;4753899;30;20052;-64
2022/06/13 02:34:05;;;;;;;9.25;4.75;;;;;;;;;;4753989;30;20058;-64
2022/06/13 02:36:44;;;;;;;7.35;4.30;;;;;;;;;;4753872;30;20528;-63
2022/06/13 02:39:23;;;;;;;9.70;4.30;;;;;;;;;;4753824;30;20048;-64
2022/06/13 02:41:57;;;;;;;7.30;3.08;;;;;;;;;;4753742;30;20435;-64
2022/06/13 02:44:32;;;;;;;8.35;3.28;;;;;;;;;;4753664;30;20040;-64
2022/06/13 02:47:09;;;;;;;5.90;2.90;;;;;;;;;;4753775;30;20127;-64
2022/06/13 02:49:42;;;;;;;7.90;2.75;;;;;;;;;;4753370;30;20054;-63
2022/06/13 02:52:24;;;;;;;6.05;2.72;;;;;;;;;;4753551;30;20075;-63
2022/06/13 02:54:55;;;;;;;9.15;2.50;;;;;;;;;;4753435;30;20056;-64
2022/06/13 02:57:53;;;;;;;9.55;2.40;;;;;;;;;;4753573;30;20044;-64
2022/06/13 03:00:35;;;;;;;6.90;2.53;;;;;;;;;;4735943;30;20068;-66
2022/06/13 03:03:41;;;;;;;6.85;2.35;;;;;;;;;;4735839;30;20053;-63
2022/06/13 03:06:19;;;;;;;7.55;2.08;;;;;;;;;;4691297;30;20523;-63
2022/06/13 03:08:50;;;;;;;5.20;2.08;;;;;;;;;;4700657;30;20136;-64
2022/06/13 03:11:44;;;;;;;7.07;2.20;;;;;;;;;;4700920;30;20054;-64
2022/06/13 03:14:36;;;;;;;16.85;2.63;;;;;;;;;;4700577;30;20423;-66
2022/06/13 03:17:33;;;;;;;13.80;2.80;;;;;;;;;;4700814;30;20056;-62
2022/06/13 03:20:08;;;;;;;7.65;2.20;;;;;;;;;;4701039;30;20136;-64
2022/06/13 03:22:47;;;;;;;8.10;2.10;;;;;;;;;;4700781;30;20050;-64
2022/06/13 03:25:38;;;;;;;8.95;2.35;;;;;;;;;;4700323;30;20045;-64
2022/06/13 03:28:22;;;;;;;8.10;2.35;;;;;;;;;;4700660;30;20053;-64
2022/06/13 03:30:57;;;;;;;10.43;2.88;;;;;;;;;;4700679;30;20446;-64
2022/06/13 03:33:42;;;;;;;6.40;2.40;;;;;;;;;;4700357;30;20057;-67
2022/06/13 03:36:15;;;;;;;19.05;9.45;;;;;;;;;;4700062;30;20046;-64
2022/06/13 03:38:55;;;;;;;12.63;2.85;;;;;;;;;;4700332;30;20064;-65
2022/06/13 03:41:26;;;;;;;5.18;2.13;;;;;;;;;;4700314;30;20049;-65
2022/06/13 03:43:58;;;;;;;9.68;1.90;;;;;;;;;;4700257;30;20049;-65
2022/06/13 03:46:43;;;;;;;7.57;2.15;;;;;;;;;;4700218;30;20396;-58
2022/06/13 03:49:34;;;;;;;11.15;3.20;;;;;;;;;;4700379;30;20088;-66
2022/06/13 03:52:03;;;;;;;8.43;2.20;;;;;;;;;;4700155;30;20052;-61
2022/06/13 03:54:34;;;;;;;6.35;2.00;;;;;;;;;;4700411;30;20049;-64
2022/06/13 03:57:19;;;;;;;8.75;2.78;;;;;;;;;;4700241;30;20050;-64
2022/06/13 03:59:54;;;;;;;6.68;1.90;;;;;;;;;;4715937;30;20506;-67
2022/06/13 04:02:28;;;;;;;8.48;2.05;;;;;;;;;;4717397;30;20135;-64
2022/06/13 04:04:56;;;;;;;6.18;2.13;;;;;;;;;;4742466;30;20048;-63
2022/06/13 04:07:26;;;;;;;5.65;1.70;;;;;;;;;;4752205;30;20052;-64
2022/06/13 04:09:59;;;;;;;5.90;1.95;;;;;;;;;;4750769;30;20118;-61
2022/06/13 04:13:01;;;;;;;15.30;7.22;;;;;;;;;;4752180;30;20052;-64
2022/06/13 04:15:37;;;;;;;7.32;2.10;;;;;;;;;;4752222;30;20048;-66
2022/06/13 04:18:23;;;;;;;7.72;2.38;;;;;;;;;;4752025;30;20066;-64
2022/06/13 04:20:56;;;;;;;4.72;1.73;;;;;;;;;;4752009;30;20052;-65
2022/06/13 04:23:48;;;;;;;6.63;2.08;;;;;;;;;;4751753;30;20063;-65
2022/06/13 04:26:19;;;;;;;9.23;2.40;;;;;;;;;;4751963;30;20498;-67
2022/06/13 04:29:07;;;;;;;7.68;2.03;;;;;;;;;;4751713;30;20106;-64
2022/06/13 04:31:36;;;;;;;7.53;1.83;;;;;;;;;;4751553;30;20094;-66
2022/06/13 04:34:12;;;;;;;6.88;2.28;;;;;;;;;;4751844;30;20064;-64
2022/06/13 04:36:41;;;;;;;10.00;2.00;;;;;;;;;;4751692;30;20059;-65
2022/06/13 04:39:10;;;;;;;6.93;1.67;;;;;;;;;;4751658;30;20135;-64
2022/06/13 04:41:42;;;;;;;8.52;2.42;;;;;;;;;;4751720;30;20059;-64
2022/06/13 04:44:14;;;;;;;11.75;4.82;;;;;;;;;;4751427;30;20052;-63
2022/06/13 04:46:43;;;;;;;9.07;2.72;;;;;;;;;;4751661;30;20040;-67
2022/06/13 04:49:27;;;;;;;7.45;2.13;;;;;;;;;;4750762;30;20083;-65
2022/06/13 04:51:56;;;;;;;13.77;2.53;;;;;;;;;;4751523;30;20055;-65
2022/06/13 04:54:51;;;;;;;6.65;2.20;;;;;;;;;;4751355;30;20097;-65
2022/06/13 04:57:21;;;;;;;8.15;2.22;;;;;;;;;;4753671;30;20134;-67
2022/06/13 04:59:51;;;;;;;6.50;1.67;;;;;;;;;;4756419;30;20740;-66
2022/06/13 05:02:23;;;;;;;7.00;2.10;;;;;;;;;;4751448;30;20056;-66
2022/06/13 05:04:51;;;;;;;7.75;1.55;;;;;;;;;;4751213;30;20052;-63
2022/06/13 05:07:21;;;;;;;7.57;2.33;;;;;;;;;;4751153;30;20139;-65
2022/06/13 05:10:00;;;;;;;6.75;1.80;;;;;;;;;;4751591;30;20450;-64
2022/06/13 05:12:39;;;;;;;54.40;26.85;;;;;;;;;;4751362;30;20062;-61
2022/06/13 05:15:31;;;;;;;10.85;2.95;;;;;;;;;;4751459;30;20547;-65
2022/06/13 05:18:13;;;;;;;6.55;1.80;;;;;;;;;;4751264;30;20126;-65
2022/06/13 05:20:46;;;;;;;8.30;2.53;;;;;;;;;;4751168;30;20079;-65
2022/06/13 05:23:21;;;;;;;;;;;;;;;;;;4751843;30;20048;-66
2022/06/13 05:25:53;;;;;;;6.47;1.85;;;;;;;;;;4750931;30;20383;-66
2022/06/13 05:28:26;;;;;;;14.13;2.38;;;;;;;;;;4751165;30;20588;-66
2022/06/13 05:30:56;;;;;;;12.50;1.88;;;;;;;;;;4751006;30;20082;-64
2022/06/13 05:33:30;;;;;;;5.90;2.03;;;;;;;;;;4751192;30;20086;-64
2022/06/13 05:36:00;;;;;;;;;;;;;;;;;;4751851;30;20114;-61
2022/06/13 05:55:29;;;;;;;7.90;2.10;;;;;;;;;;5172282;27;20421;-63
2022/06/13 05:58:01;;;;;;;8.30;2.03;;;;;;;;;;5151151;27;20151;-62
2022/06/13 06:00:35;;;;;;;5.35;1.58;;;;;;;;;;5151344;27;20039;-62
2022/06/13 06:03:04;;;;;;;10.98;2.10;;;;;;;;;;5151225;27;20035;-62
2022/06/13 06:05:31;;;;;;;8.70;1.83;;;;;;;;;;5131570;27;20043;-62
2022/06/13 06:07:59;;;;;;;8.65;1.70;;;;;;;;;;5111864;28;20044;-62
2022/06/13 06:10:32;;;;;;;6.00;1.60;;;;;;;;;;5109676;28;20460;-64
2022/06/13 06:12:59;;;;;;;5.88;1.50;;;;;;;;;;5108698;28;20044;-63
2022/06/13 06:15:27;;;;;;;5.32;2.10;;;;;;;;;;5109039;28;21727;-62
2022/06/13 06:17:54;;;;;;;147.48;84.65;;;;;;;;;;5109363;28;20552;-61
2022/06/13 06:20:23;;;;;;;6.75;2.60;;;;;;;;;;5109438;28;20036;-63
2022/06/13 06:22:53;;;;;;;7.82;1.77;;;;;;;;;;5109490;28;20097;-62
2022/06/13 06:25:21;;;;;;;3.13;1.40;;;;;;;;;;5109443;28;20060;-61
2022/06/13 06:27:48;;;;;;;13.95;6.80;;;;;;;;;;5107965;28;20499;-67
2022/06/13 06:30:18;;;;;;;5.97;1.88;;;;;;;;;;5109269;28;20438;-67
2022/06/13 06:32:50;;;;;;;4.78;1.48;;;;;;;;;;5109153;28;20047;-66
2022/06/13 06:35:17;;;;;;;4.75;1.58;;;;;;;;;;5109054;28;20094;-67
2022/06/13 10:45:50;;;;;;;79.35;53.90;;;;;;;;;;5193466;27;20901;-61
2022/06/13 10:48:24;;;;;;;11.15;6.45;;;;;;;;;;5188971;27;20038;-63
2022/06/13 10:50:58;;;;;;;5.70;1.67;;;;;;;;;;5193172;27;20433;-66
2022/06/13 10:53:44;;;;;;;3.95;1.40;;;;;;;;;;5174635;27;20278;-65
2022/06/13 10:56:24;;;;;;;5.18;1.13;;;;;;;;;;5193062;27;20038;-64
2022/06/13 10:58:57;;;;;;;3.50;1.40;;;;;;;;;;5174461;27;20034;-67
2022/06/13 11:01:30;;;;;;;6.57;1.58;;;;;;;;;;5193020;27;20034;-65
2022/06/13 11:04:20;;;;;;;12.45;1.73;;;;;;;;;;5174156;27;20038;-64
2022/06/13 11:06:56;;;;;;;14.35;2.00;;;;;;;;;;5192603;27;20560;-64
2022/06/13 11:09:39;;;;;;;8.65;1.58;;;;;;;;;;5192883;27;20053;-62
2022/06/13 11:12:25;;;;;;;9.07;1.80;;;;;;;;;;5192603;27;20060;-63
2022/06/13 11:24:03;;;;;;;5.60;2.17;;;;;;;;;;5186769;27;20377;-62
2022/06/13 11:29:24;;;;;;;4.70;1.65;;;;;;;;;;5152451;27;20091;-59
2022/06/13 11:31:57;;;;;;;9.73;2.08;;;;;;;;;;5170602;27;20461;-63
2022/06/13 11:34:38;;;;;;;7.90;2.00;;;;;;;;;;5171213;27;20043;-60
2022/06/13 11:37:23;;;;;;;8.02;2.00;;;;;;;;;;5171174;27;20129;-61
2022/06/13 11:39:53;;;;;;;5.07;2.38;;;;;;;;;;5171328;27;20045;-60
2022/06/13 11:42:26;;;;;;;6.40;1.90;;;;;;;;;;5152854;27;20062;-62
2022/06/13 11:45:05;;;;;;;5.00;1.83;;;;;;;;;;5170645;27;20580;-60
2022/06/13 11:47:45;;;;;;;4.05;2.00;;;;;;;;;;5170942;27;20503;-61
2022/06/13 11:50:18;;;;;;;5.90;1.90;;;;;;;;;;5171052;27;20459;-63
2022/06/13 11:55:43;;;;;;;3.78;2.10;;;;;;;;;;5166342;27;20118;-61
2022/06/13 11:58:20;;;;;;;5.05;1.60;;;;;;;;;;5156750;27;20078;-63
2022/06/13 12:00:54;;;;;;;4.93;2.60;;;;;;;;;;5156701;27;20450;-61
2022/06/13 12:03:24;;;;;;;6.10;2.08;;;;;;;;;;5156892;27;20139;-61
2022/06/13 12:06:07;;;;;;;5.78;2.42;;;;;;;;;;5156852;27;20074;-61
2022/06/13 12:08:35;;;;;;;8.95;2.72;;;;;;;;;;5156350;27;20047;-61
2022/06/13 12:11:13;;;;;;;24.88;13.88;;;;;;;;;;5156259;27;20100;-62
2022/06/13 12:13:45;;;;;;;4.10;1.98;;;;;;;;;;5156599;27;20038;-60
2022/06/13 12:16:20;;;;;;;6.87;2.60;;;;;;;;;;5156554;27;20430;-61
2022/06/13 12:19:12;;;;;;;4.22;1.88;;;;;;;;;;5156085;27;20068;-62
2022/06/13 12:21:53;;;;;;;5.25;1.83;;;;;;;;;;5156435;27;20046;-62
2022/06/13 12:24:30;;;;;;;3.33;1.70;;;;;;;;;;5168888;27;20042;-63
2022/06/13 12:27:37;;;;;;;5.43;1.90;;;;;;;;;;5177246;27;20034;-62
2022/06/13 12:30:14;;;;;;;4.00;1.67;;;;;;;;;;5177053;27;20507;-62
2022/06/13 12:32:51;;;;;;;2.92;1.33;;;;;;;;;;5177167;27;20038;-61
2022/06/13 12:35:37;;;;;;;5.65;1.73;;;;;;;;;;5176706;27;20409;-62
2022/06/13 12:38:10;;;;;;;3.75;1.75;;;;;;;;;;5176798;27;20507;-61
2022/06/13 12:41:15;;;;;;;5.45;1.80;;;;;;;;;;5177075;27;20087;-61
2022/06/13 12:44:22;;;;;;;4.32;1.77;;;;;;;;;;5176836;27;20035;-63
2022/06/13 12:47:09;;;;;;;3.97;1.70;;;;;;;;;;5176630;27;20098;-62
2022/06/13 12:50:09;;;;;;;14.38;8.35;;;;;;;;;;5176637;27;20396;-63
2022/06/13 12:53:08;;;;;;;5.05;2.63;;;;;;;;;;5155101;27;20103;-63
2022/06/13 12:55:54;;;;;;;3.78;1.40;;;;;;;;;;5176631;27;20077;-62
2022/06/13 12:58:24;;;;;;;;;;;;;;;;;;5177036;27;20034;-64
2022/06/13 13:01:11;;;;;;;2.95;1.42;;;;;;;;;;5176301;27;19925;-63
2022/06/13 13:03:50;;;;;;;3.70;1.52;;;;;;;;;;5176370;27;20034;-63
2022/06/13 13:06:31;;;;;;;4.10;1.85;;;;;;;;;;5176279;27;20038;-64
2022/06/13 13:09:18;;;;;;;2.85;1.30;;;;;;;;;;5173564;27;20110;-57
2022/06/13 13:11:57;;;;;;;3.58;1.40;;;;;;;;;;5174204;27;20555;-63
2022/06/13 13:14:24;;;;;;;4.55;1.60;;;;;;;;;;5174226;27;20039;-62
2022/06/13 13:17:00;;;;;;;2.92;1.58;;;;;;;;;;5173995;27;20029;-63
2022/06/13 13:19:39;;;;;;;3.70;1.83;;;;;;;;;;5174171;27;20042;-63
2022/06/13 13:22:14;;;;;;;2.63;1.42;;;;;;;;;;5174063;27;20038;-64
2022/06/13 13:24:56;;;;;;;8.75;2.10;;;;;;;;;;5160234;27;20039;-64
2022/06/13 13:27:26;;;;;;;12.23;2.38;;;;;;;;;;5155229;27;20034;-61
2022/06/13 13:29:58;;;;;;;14.18;1.92;;;;;;;;;;5154932;27;20519;-62
2022/06/13 13:32:34;;;;;;;7.50;1.80;;;;;;;;;;5155039;27;20071;-62
2022/06/13 13:35:19;;;;;;;10.38;2.35;;;;;;;;;;5154918;27;20401;-57
2022/06/13 13:37:58;;;;;;;8.65;2.72;;;;;;;;;;5154936;27;20038;-61
2022/06/13 13:41:14;;;;;;;7.03;2.40;;;;;;;;;;5154651;27;20039;-61
2022/06/13 13:43:53;;;;;;;5.78;2.40;;;;;;;;;;5147525;27;20095;-61
2022/06/13 13:46:43;;;;;;;7.38;2.35;;;;;;;;;;5154679;27;20038;-63
2022/06/13 13:49:24;;;;;;;7.22;2.60;;;;;;;;;;5141106;27;20058;-62
2022/06/13 13:52:04;;;;;;;7.10;3.30;;;;;;;;;;5154762;27;20125;-62
2022/06/13 13:54:48;;;;;;;4.13;2.63;;;;;;;;;;5154843;27;20122;-59
2022/06/13 13:57:30;;;;;;;8.25;2.80;;;;;;;;;;5154511;27;20093;-61
2022/06/13 14:00:04;;;;;;;6.93;2.75;;;;;;;;;;5154531;27;20064;-61
2022/06/13 14:02:44;;;;;;;6.78;2.92;;;;;;;;;;5154411;27;20122;-60
2022/06/13 14:05:29;;;;;;;5.75;2.33;;;;;;;;;;5154217;27;20034;-62
2022/06/13 14:08:09;;;;;;;5.88;2.65;;;;;;;;;;5154342;27;20051;-60
2022/06/13 14:10:46;;;;;;;7.43;2.30;;;;;;;;;;5154300;27;20045;-61
2022/06/13 14:13:34;;;;;;;7.18;2.85;;;;;;;;;;5152073;27;20050;-61
2022/06/13 14:16:07;;;;;;;7.13;3.40;;;;;;;;;;5154397;27;20509;-60
2022/06/13 14:18:46;;;;;;;4.55;2.50;;;;;;;;;;5153813;27;20056;-60
2022/06/13 14:21:41;;;;;;;6.55;2.72;;;;;;;;;;5154251;27;20110;-63
2022/06/13 14:24:11;;;;;;;6.50;2.72;;;;;;;;;;5101994;27;20085;-61
2022/06/13 14:26:44;;;;;;;6.32;2.97;;;;;;;;;;5133139;27;20501;-61
2022/06/13 14:29:36;;;;;;;6.97;3.00;;;;;;;;;;5132039;27;20041;-62
2022/06/13 14:32:14;;;;;;;6.82;2.72;;;;;;;;;;5133388;27;20046;-61
2022/06/13 14:37:58;;;;;;;7.35;2.90;;;;;;;;;;5133287;27;20043;-60
2022/06/13 14:40:49;;;;;;;9.55;2.58;;;;;;;;;;5115980;27;20074;-62
2022/06/13 14:43:31;;;;;;;4.90;2.53;;;;;;;;;;5132966;28;20065;-60
2022/06/13 14:46:17;;;;;;;24.27;14.20;;;;;;;;;;5114499;28;20078;-57
2022/06/13 14:49:00;;;;;;;12.55;3.42;;;;;;;;;;5133122;28;20039;-59
2022/06/13 14:51:31;;;;;;;7.88;2.83;;;;;;;;;;5132794;28;20039;-59
2022/06/13 14:54:00;;;;;;;7.35;3.10;;;;;;;;;;5133015;28;20042;-60
2022/06/13 14:56:33;;;;;;;8.23;3.10;;;;;;;;;;5132800;28;20049;-57
2022/06/13 14:59:07;;;;;;;7.20;2.90;;;;;;;;;;5132830;28;20036;-59
2022/06/13 15:02:06;;;;;;;9.20;3.42;;;;;;;;;;5132814;27;20042;-60
2022/06/13 15:04:34;;;;;;;6.88;3.53;;;;;;;;;;5101731;28;20137;-59
2022/06/13 15:07:01;;;;;;;7.88;3.00;;;;;;;;;;5132975;28;20040;-59
2022/06/13 15:09:50;;;;;;;6.25;3.00;;;;;;;;;;5132642;28;20042;-60
2022/06/13 15:12:21;;;;;;;5.70;3.58;;;;;;;;;;5132736;28;20073;-57
2022/06/13 15:14:51;;;;;;;7.43;2.50;;;;;;;;;;5132608;28;20062;-59
2022/06/13 15:17:20;;;;;;;7.45;3.00;;;;;;;;;;5132599;27;20118;-59
2022/06/13 15:19:54;;;;;;;6.13;2.83;;;;;;;;;;5114539;28;20039;-60
2022/06/13 15:22:26;;;;;;;7.38;3.15;;;;;;;;;;5132497;28;20147;-60
2022/06/13 15:25:00;;;;;;;5.28;2.95;;;;;;;;;;5166826;27;20137;-59
2022/06/13 15:27:27;;;;;;;7.60;3.13;;;;;;;;;;5174177;27;20636;-60
2022/06/13 15:29:58;;;;;;;6.65;2.88;;;;;;;;;;5174105;27;20070;-61
2022/06/13 15:32:37;;;;;;;7.43;2.67;;;;;;;;;;5177815;27;20042;-60
2022/06/13 15:35:10;;;;;;;8.68;3.22;;;;;;;;;;5178176;27;20070;-59
2022/06/13 15:37:43;;;;;;;7.13;3.42;;;;;;;;;;5159815;27;20463;-60
2022/06/13 15:40:48;;;;;;;8.82;3.90;;;;;;;;;;5177930;27;20098;-59
2022/06/13 15:43:29;;;;;;;5.18;3.78;;;;;;;;;;5124613;27;20050;-60
2022/06/13 15:45:57;;;;;;;7.88;4.13;;;;;;;;;;5177906;27;20038;-59
2022/06/13 15:48:25;;;;;;;7.05;4.90;;;;;;;;;;5177668;27;20084;-60
2022/06/13 15:51:14;;;;;;;6.50;3.67;;;;;;;;;;5177574;27;20126;-59
2022/06/13 15:53:43;;;;;;;7.43;4.20;;;;;;;;;;5177617;27;20540;-59
2022/06/13 15:56:33;;;;;;;8.25;3.90;;;;;;;;;;5177571;27;20042;-60
2022/06/13 15:59:08;;;;;;;7.78;5.10;;;;;;;;;;5177572;27;20034;-59
2022/06/13 16:01:48;;;;;;;10.38;4.38;;;;;;;;;;5177825;27;20062;-59
2022/06/13 16:04:18;;;;;;;9.85;5.32;;;;;;;;;;5177468;27;20042;-59
2022/06/13 16:06:49;;;;;;;9.00;5.45;;;;;;;;;;5177563;27;20038;-60
2022/06/13 16:09:22;;;;;;;9.88;6.63;;;;;;;;;;5177503;27;20062;-60
2022/06/13 16:11:54;;;;;;;12.52;5.07;;;;;;;;;;5177401;27;20075;-60
2022/06/13 16:14:24;;;;;;;36.10;23.98;;;;;;;;;;5141626;27;20061;-61
2022/06/13 16:17:00;;;;;;;10.05;5.32;;;;;;;;;;5177256;27;20043;-60
2022/06/13 16:19:32;;;;;;;8.10;4.13;;;;;;;;;;5177320;27;20113;-60
2022/06/13 16:22:05;;;;;;;8.23;3.70;;;;;;;;;;5159521;27;20464;-60
2022/06/13 16:24:35;;;;;;;6.28;3.55;;;;;;;;;;5156223;27;20042;-59
2022/06/13 16:27:03;;;;;;;29.88;18.70;;;;;;;;;;5155890;27;20045;-60
2022/06/13 16:29:32;;;;;;;8.48;3.90;;;;;;;;;;5137687;27;20035;-60
2022/06/13 16:32:00;;;;;;;7.68;3.70;;;;;;;;;;5155973;27;20451;-59
2022/06/13 16:34:28;;;;;;;7.35;3.20;;;;;;;;;;5156151;27;20103;-61
2022/06/13 16:37:03;;;;;;;8.60;3.50;;;;;;;;;;5155834;27;20030;-60
2022/06/13 16:39:39;;;;;;;25.58;14.52;;;;;;;;;;5137661;27;20035;-60
2022/06/13 16:42:21;;;;;;;14.27;6.65;;;;;;;;;;5155977;27;20047;-59
2022/06/13 16:44:56;;;;;;;9.90;3.75;;;;;;;;;;5155621;27;20082;-60
2022/06/13 16:47:30;;;;;;;6.22;3.22;;;;;;;;;;5155771;27;20031;-60
2022/06/13 16:50:20;;;;;;;4.55;2.72;;;;;;;;;;5136928;27;20087;-60
2022/06/13 16:53:17;;;;;;;8.05;3.20;;;;;;;;;;5155631;27;20047;-60
2022/06/13 16:55:50;;;;;;;5.45;2.92;;;;;;;;;;5153970;27;20053;-57
2022/06/13 16:58:52;;;;;;;6.40;3.20;;;;;;;;;;5155248;27;20446;-60
2022/06/13 17:01:21;;;;;;;5.40;3.00;;;;;;;;;;5155498;27;20048;-60
2022/06/13 17:04:02;;;;;;;6.15;2.85;;;;;;;;;;5137434;27;20038;-59
2022/06/13 17:06:32;;;;;;;5.13;2.65;;;;;;;;;;5155090;27;20042;-60
2022/06/13 17:09:13;;;;;;;8.35;2.72;;;;;;;;;;5155169;27;20087;-59
2022/06/13 17:12:00;;;;;;;4.60;2.15;;;;;;;;;;5155495;27;20051;-59
2022/06/13 17:14:35;;;;;;;3.95;2.20;;;;;;;;;;5155160;27;20121;-59
2022/06/13 17:17:11;;;;;;;4.05;2.38;;;;;;;;;;5155054;27;20034;-59
2022/06/13 17:19:42;;;;;;;5.72;2.65;;;;;;;;;;5137482;27;20493;-60
2022/06/13 17:22:13;;;;;;;4.22;2.33;;;;;;;;;;5155267;27;20649;-59
2022/06/13 17:24:43;;;;;;;6.15;2.90;;;;;;;;;;5170470;27;20030;-60
2022/06/13 17:32:46;;;;;;;6.20;2.15;;;;;;;;;;5175819;27;20042;-59
2022/06/13 17:35:14;;;;;;;4.47;2.45;;;;;;;;;;5175865;27;20057;-60
2022/06/13 17:37:42;;;;;;;4.00;2.38;;;;;;;;;;5175763;27;20390;-59
2022/06/13 17:40:10;;;;;;;6.90;3.38;;;;;;;;;;5175795;27;20038;-59
2022/06/13 17:42:38;;;;;;;5.47;2.75;;;;;;;;;;5175625;27;20099;-60
2022/06/13 17:45:10;;;;;;;6.93;3.13;;;;;;;;;;5175118;27;20400;-60
2022/06/13 17:47:44;;;;;;;6.93;2.95;;;;;;;;;;5175751;27;20472;-59
2022/06/13 17:50:14;;;;;;;5.53;2.65;;;;;;;;;;5156834;27;20042;-59
2022/06/13 17:52:42;;;;;;;5.32;2.60;;;;;;;;;;5175690;27;20034;-59
2022/06/13 17:55:10;;;;;;;5.13;3.13;;;;;;;;;;5174656;27;20046;-59
2022/06/13 17:57:37;;;;;;;6.30;3.53;;;;;;;;;;5175434;27;20034;-58
2022/06/13 18:00:11;;;;;;;4.72;2.72;;;;;;;;;;5156441;27;20465;-59
2022/06/13 18:02:40;;;;;;;3.88;2.20;;;;;;;;;;5175169;27;20046;-57
2022/06/13 18:05:08;;;;;;;3.47;2.70;;;;;;;;;;5175104;27;20044;-59
2022/06/13 18:07:43;;;;;;;3.85;2.92;;;;;;;;;;5175174;27;20124;-59
2022/06/13 18:10:14;;;;;;;5.82;3.15;;;;;;;;;;5175334;27;20038;-59
2022/06/13 18:12:42;;;;;;;5.18;2.40;;;;;;;;;;5175302;27;20492;-59
2022/06/13 18:15:11;;;;;;;7.50;5.15;;;;;;;;;;5174767;27;20045;-60
2022/06/13 18:17:45;;;;;;;3.92;2.75;;;;;;;;;;5174860;27;20058;-59
2022/06/13 18:20:17;;;;;;;6.93;3.47;;;;;;;;;;5175502;27;20062;-59
2022/06/13 18:22:47;;;;;;;;;;;;;;;;;;5175289;27;20484;-58
2022/06/13 18:25:15;;;;;;;13.00;7.38;;;;;;;;;;5154824;27;19922;-59
2022/06/13 18:27:46;;;;;;;6.72;4.05;;;;;;;;;;5154061;27;20092;-59
2022/06/13 18:30:18;;;;;;;5.32;3.92;;;;;;;;;;5154357;27;20034;-59
2022/06/13 18:32:45;;;;;;;5.70;3.25;;;;;;;;;;5154111;27;20404;-60
2022/06/13 18:35:14;;;;;;;13.00;5.45;;;;;;;;;;5154176;27;20544;-60
2022/06/13 18:37:41;;;;;;;14.93;5.78;;;;;;;;;;5135646;27;20079;-59
2022/06/13 18:40:10;;;;;;;4.70;3.60;;;;;;;;;;5153818;27;20031;-60
2022/06/13 18:42:42;;;;;;;6.50;4.40;;;;;;;;;;5153828;27;20074;-60
2022/06/13 18:45:12;;;;;;;8.10;3.60;;;;;;;;;;5135458;27;20065;-60
2022/06/13 18:47:41;;;;;;;12.38;4.20;;;;;;;;;;5153494;27;20130;-59
2022/06/13 18:50:12;;;;;;;5.28;3.50;;;;;;;;;;5135333;27;20125;-59
2022/06/13 18:52:42;;;;;;;7.75;3.13;;;;;;;;;;5154054;27;20046;-60
2022/06/13 18:55:10;;;;;;;30.30;4.72;;;;;;;;;;5153624;27;20043;-59
2022/06/13 18:57:37;;;;;;;4.80;3.03;;;;;;;;;;5153775;27;20053;-60
2022/06/13 19:00:09;;;;;;;10.60;4.90;;;;;;;;;;5153759;27;20031;-60
2022/06/13 19:02:41;;;;;;;128.23;12.27;;;;;;;;;;5153088;27;20050;-59
2022/06/13 19:05:11;;;;;;;8.23;3.67;;;;;;;;;;5153195;27;20282;-59
2022/06/13 19:07:40;;;;;;;10.30;3.83;;;;;;;;;;5157576;27;20051;-60
2022/06/13 19:10:12;;;;;;;9.68;5.05;;;;;;;;;;5159289;27;20031;-60
2022/06/13 19:12:42;;;;;;;19.33;5.72;;;;;;;;;;5157701;27;20102;-58
2022/06/13 19:15:11;;;;;;;29.48;4.72;;;;;;;;;;5139043;27;20472;-58
2022/06/13 19:17:43;;;;;;;43.60;9.48;;;;;;;;;;5157562;27;20027;-58
2022/06/13 19:20:15;;;;;;;14.00;4.22;;;;;;;;;;5157612;27;20037;-58
2022/06/13 19:22:43;;;;;;;39.40;4.72;;;;;;;;;;5157683;27;20031;-59
2022/06/13 19:25:11;;;;;;;6.47;3.50;;;;;;;;;;5177366;27;20097;-58
2022/06/13 19:27:41;;;;;;;15.73;4.10;;;;;;;;;;5178237;27;20038;-59
2022/06/13 19:30:12;;;;;;;25.42;4.53;;;;;;;;;;5178443;27;20485;-58
2022/06/13 19:32:44;;;;;;;36.78;5.10;;;;;;;;;;5178265;27;20041;-59
2022/06/13 19:35:16;;;;;;;11.13;4.57;;;;;;;;;;5178494;27;20117;-57
2022/06/13 19:37:46;;;;;;;91.85;7.97;;;;;;;;;;5178261;27;20504;-58
2022/06/13 19:40:16;;;;;;;31.50;4.65;;;;;;;;;;5178514;27;20489;-57
2022/06/13 19:42:46;;;;;;;120.88;7.35;;;;;;;;;;5178176;27;20068;-59
2022/06/13 19:45:16;;;;;;;17.52;3.65;;;;;;;;;;5178114;27;20050;-59
2022/06/13 19:47:47;;;;;;;24.73;4.13;;;;;;;;;;5178211;27;20082;-57
2022/06/13 19:50:20;;;;;;;20.92;4.88;;;;;;;;;;5178206;27;20487;-59
2022/06/13 19:53:04;;;;;;;14.68;5.22;;;;;;;;;;5159316;27;20378;-58
2022/06/13 19:55:46;;;;;;;7.07;4.38;;;;;;;;;;5177951;27;20069;-59
2022/06/13 19:58:18;;;;;;;6.78;4.88;;;;;;;;;;5177888;27;20066;-59
2022/06/13 20:00:48;;;;;;;115.57;8.52;;;;;;;;;;5159276;27;20129;-58
2022/06/13 20:03:17;;;;;;;11.50;5.50;;;;;;;;;;5177833;27;20042;-59
2022/06/13 20:08:35;;;;;;;8.23;4.40;;;;;;;;;;5177633;27;20045;-59
2022/06/13 20:11:04;;;;;;;73.63;7.88;;;;;;;;;;5177373;27;20030;-58
2022/06/13 20:13:36;;;;;;;17.55;5.68;;;;;;;;;;5177567;27;20472;-59
2022/06/13 20:16:06;;;;;;;75.55;9.88;;;;;;;;;;5177303;27;20038;-59
2022/06/13 20:18:38;;;;;;;9.40;4.53;;;;;;;;;;5177104;27;20045;-59
2022/06/13 20:21:09;;;;;;;13.07;5.93;;;;;;;;;;5177257;27;20042;-59
2022/06/13 20:23:37;;;;;;;25.58;6.10;;;;;;;;;;5170914;27;20035;-59
2022/06/13 20:26:04;;;;;;;35.22;5.57;;;;;;;;;;5156501;27;20118;-59